Camden, Maine
Current Conditions -  °F | °C
As of 7:55 AM on Saturday 25 Oct 2014 (Local Time) from KRKD Reporting Station
Clear Clear  
Wind Chill: 36°   Ceiling: Unl
Heat Index: 39°   Visibility: 10mi
Dew Point: 37°   Wind: 5mph
Humidity: 93%   Direction: 270°W
Pressure: 29.67"   Gusts: NA
Location:  44.21°N, 69.06°W
Report Text: KRKD 251155Z AUTO 27004KT 10SM CLR 04/03 A2967 RMK AO1 70008 10070 20040 52007
Loading
Personal Weather Stations






























Interactive Weather Map
Tropical Storm Tracking
New forecast layout! Learn more

10-Day Weather Forecast

Advertisements
Track Severe Weather on mobile